Terminal Aerodrome Forecast
Issued by NWS

Home | Current Version | Previous Version | Text Only | Print | Product List | Glossary On
Versions: 1 2 3 4 5 6 7 8 9 10 11 12 13 14 15 16 17
000
FTUS44 KBMX 021128
TAFMGM
TAF
KMGM 021128Z 0212/0312 VRB03KT 4SM BR BKN002
     FM021300 31003KT 5SM BR BKN007
     FM021400 31003KT 6SM BR SCT015 BKN025
     FM021500 33005KT P6SM SCT050 SCT250
     FM030200 00000KT P6SM SKC=

USA.gov is the U.S. government's official web portal to all federal, state and local government web resources and services.